Flight Track Log - Related Links

Times and Time Zones

All times are in EDT time to prevent confusion due to time zone crossing. See the AAY800 flight status page for this flight to view local times or setup timezone preferences in your user account.

Time Position Orientation Groundspeed Altitude Reporting Facility
EDT Latitude Longitude Course Direction KTS MPH feet Rate Location/Type
Sun 05:27:36 PM 27.9167 -82.6833 360° North 205 236 500  Level Tampa TRACON
Sun 05:28:12 PM 27.9500 -82.6833 360° North 156 180 1,800 1,794 Climbing Tampa TRACON
Sun 05:29:13 PM 28.0000 -82.6667 16° North 227 261 3,400 2,200 Climbing Tampa TRACON
Sun 05:30:12 PM 28.0667 -82.6500 12° North 277 319 6,200 2,736 Climbing Tampa TRACON
Sun 05:31:18 PM 28.1500 -82.6500 360° North 275 316 9,100 2,381 Climbing Tampa TRACON
Sun 05:32:18 PM 28.2333 -82.6333 10° North 297 342 11,200 1,132 Climbing Tampa TRACON
Sun 05:33:57 PM 28.3814 -82.6142 North 360 414 12,100 1,283 Climbing Jacksonville Center
Sun 05:34:57 PM 28.4897 -82.6256 355° North 365 420 14,600 1,750 Climbing Jacksonville Center
Sun 05:35:57 PM 28.5878 -82.6419 352° North 365 420 15,600 1,463 Climbing Jacksonville Center
Sun 05:36:19 PM 28.6303 -82.6462 354° North 366 421 16,600 2,200 Climbing FlightAware ADS-B
Sun 05:36:57 PM 28.6903 -82.6558 353° North 365 420 17,800 1,714 Climbing Jacksonville Center
Sun 05:37:57 PM 28.7800 -82.6653 355° North 365 420 19,400 1,750 Climbing Jacksonville Center
Sun 05:38:57 PM 28.8864 -82.6767 355° North 370 426 21,300 1,800 Climbing Jacksonville Center
Sun 05:39:57 PM 28.9928 -82.6883 355° North 370 426 23,000 1,500 Climbing Jacksonville Center
Sun 05:40:57 PM 29.1036 -82.6978 356° North 380 437 24,300 1,350 Climbing Jacksonville Center
Sun 05:41:57 PM 29.2183 -82.6856 North 392 451 25,700 1,227 Climbing Jacksonville Center
Sun 05:49:45 PM 30.1827 -82.5867 North 424 488 35,100 1,033 Climbing FlightAware ADS-B
Sun 05:50:57 PM 30.3058 -82.5775 North 430 495 35,000 -45 Descending Jacksonville Center
Sun 05:51:57 PM 30.4269 -82.5625 North 430 495 35,000  Level Jacksonville Center
Sun 05:52:57 PM 30.5481 -82.5525 North 425 489 35,000  Level Jacksonville Center
Sun 05:53:57 PM 30.6692 -82.5497 North 425 489 35,000  Level Jacksonville Center
Sun 05:54:57 PM 30.8006 -82.5444 North 425 489 35,000 400 Level Jacksonville Center
Sun 05:55:57 PM 30.9194 -82.5367 North 420 483 35,800 900 Climbing Jacksonville Center
Sun 05:56:57 PM 31.0386 -82.5314 North 420 483 36,800 600 Climbing Jacksonville Center
Sun 05:57:57 PM 31.1575 -82.5283 North 420 483 37,000 100 Climbing Jacksonville Center
Sun 05:58:57 PM 31.2767 -82.5256 North 420 483 37,000  Level Jacksonville Center
Sun 05:59:57 PM 31.3808 -82.5153 North 420 483 37,000 37 Level Jacksonville Center
Sun 06:01:41 PM 31.5828 -82.5250 358° North 407 468 37,100 37 Climbing Atlanta Center
Sun 06:02:41 PM 31.6939 -82.5622 344° North 407 468 37,100  Level Atlanta Center
Sun 06:03:41 PM 31.8050 -82.5969 345° North 407 468 37,100  Level Atlanta Center
Sun 06:04:41 PM 31.9161 -82.6369 343° North 412 474 37,100 -50 Level Atlanta Center
Sun 06:05:41 PM 32.0250 -82.6744 344° North 412 474 37,000  Descending Atlanta Center
Sun 06:06:41 PM 32.1339 -82.7069 346° North 405 466 37,100  Climbing Atlanta Center
Sun 06:07:41 PM 32.2469 -82.7422 345° North 405 466 37,000 -50 Descending Atlanta Center
Sun 06:08:41 PM 32.3536 -82.7750 345° North 405 466 37,000  Level Atlanta Center
Sun 06:09:41 PM 32.4647 -82.8056 347° North 400 460 37,000  Level Atlanta Center
Sun 06:10:41 PM 32.5694 -82.8408 344° North 394 453 37,000  Level Atlanta Center
Sun 06:11:41 PM 32.6803 -82.8764 345° North 400 460 37,000 50 Level Atlanta Center
Sun 06:12:41 PM 32.7914 -82.9097 346° North 400 460 37,100 50 Climbing Atlanta Center
Sun 06:13:41 PM 32.9022 -82.9403 347° North 400 460 37,100 -50 Level Atlanta Center
Sun 06:14:41 PM 33.0111 -82.9736 346° North 400 460 37,000 -50 Descending Atlanta Center
Sun 06:15:41 PM 33.1242 -83.0119 344° North 405 466 37,000  Level Atlanta Center
Sun 06:16:41 PM 33.2456 -83.0478 346° North 400 460 37,000  Level Atlanta Center
Sun 06:17:41 PM 33.3564 -83.0814 346° North 400 460 37,000 50 Level Atlanta Center
Sun 06:18:41 PM 33.4653 -83.1150 346° North 400 460 37,100 50 Climbing Atlanta Center
Sun 06:19:41 PM 33.5803 -83.1486 346° North 405 466 37,100  Level Atlanta Center
Sun 06:25:09 PM 34.2203 -83.3498 345° North 401 461 37,100  Level FlightAware ADS-B (KDZJ)
Sun 06:25:43 PM 34.2826 -83.3696 345° North 403 464 37,100 -75 Level FlightAware ADS-B (KDZJ)
Sun 06:26:29 PM 34.3682 -83.3967 345° North 404 465 37,000 -69 Descending FlightAware ADS-B (KDZJ)
Sun 06:27:10 PM 34.4428 -83.4204 345° North 404 465 37,000 61 Level FlightAware ADS-B (KDZJ)
Sun 06:28:08 PM 34.5502 -83.4547 345° North 413 475 37,100 63 Climbing FlightAware ADS-B (KDZJ)
Sun 06:28:46 PM 34.6204 -83.4772 345° North 413 475 37,100  Level FlightAware ADS-B (KDZJ)
Sun 06:29:27 PM 34.6978 -83.5020 345° North 414 476 37,100  Level FlightAware ADS-B (KDZJ)
Sun 06:30:10 PM 34.7770 -83.5272 345° North 414 476 37,100  Level FlightAware ADS-B (KDZJ)
Sun 06:30:45 PM 34.8413 -83.5478 345° North 414 476 37,100  Level FlightAware ADS-B (KDZJ)
Sun 06:31:30 PM 34.9246 -83.5747 345° North 414 476 37,100  Level FlightAware ADS-B (KDZJ)
Sun 06:32:11 PM 35.0007 -83.5993 345° North 415 478 37,100  Level FlightAware ADS-B (KDZJ)
Sun 06:32:50 PM 35.0743 -83.6231 345° North 414 476 37,100 474 Level FlightAware ADS-B (KDZJ)
Sun 06:33:27 PM 35.1419 -83.6450 345° North 404 465 37,700 789 Climbing FlightAware ADS-B (KDZJ)
Sun 06:34:06 PM 35.2142 -83.6685 345° North 413 475 38,100 289 Climbing FlightAware ADS-B (KDZJ)
Sun 06:34:50 PM 35.2955 -83.6950 345° North 413 475 38,100  Level FlightAware ADS-B (KDZJ)
Sun 06:35:30 PM 35.3713 -83.7194 345° North 418 481 38,100  Level FlightAware ADS-B (KDZJ)
Sun 06:36:30 PM 35.4825 -83.7557 345° North 416 479 38,100  Level FlightAware ADS-B (KDZJ)
Sun 06:37:04 PM 35.5471 -83.7770 345° North 416 479 38,100 -85 Level FlightAware ADS-B (KDZJ)
Sun 06:37:41 PM 35.5742 -83.7886 345° North 416 479 38,000  Descending Atlanta Center
Sun 06:38:41 PM 35.6867 -83.8239 346° North 416 479 38,100 15 Climbing Atlanta Center
Sun 06:44:34 PM 36.3604 -83.9617 353° North 422 486 38,100  Level FlightAware ADS-B (KMDQ)
Sun 06:45:05 PM 36.4200 -83.9705 353° North 422 486 38,100 -56 Level FlightAware ADS-B (KMDQ)
Sun 06:46:21 PM 36.5569 -83.9903 353° North 419 482 38,000  Descending Indianapolis Center
Sun 06:52:08 PM 37.2612 -84.0966 353° North 433 498 38,100 16 Climbing FlightAware ADS-B (KCVG)
Sun 06:52:42 PM 37.3164 -84.1050 353° North 433 498 38,100  Level FlightAware ADS-B (KCVG)
Sun 06:53:36 PM 37.4128 -84.1206 353° North 431 496 38,100 -52 Level Indianapolis Center
Sun 06:54:38 PM 37.5336 -84.1375 354° North 432 497 38,000  Descending Indianapolis Center
Sun 07:00:35 PM 38.2765 -84.2525 353° North 443 510 38,100 15 Climbing FlightAware ADS-B
Sun 07:01:12 PM 38.3130 -84.2582 353° North 445 512 38,100 -366 Level FlightAware ADS-B
Sun 07:03:19 PM 38.6098 -84.3037 356° North 441 507 37,100 -405 Descending FlightAware ADS-B
Sun 07:03:40 PM 38.6437 -84.3055 North 441 507 37,100  Level FlightAware ADS-B
Sun 07:04:16 PM 38.7266 -84.2986 North 446 513 37,100  Level FlightAware ADS-B
Sun 07:04:47 PM 38.7889 -84.2884 North 445 512 37,100 -97 Level FlightAware ADS-B
Sun 07:05:18 PM 38.8546 -84.2780 North 445 512 37,000 -476 Descending FlightAware ADS-B
Sun 07:05:50 PM 38.9180 -84.2679 North 439 505 36,600 -871 Descending FlightAware ADS-B
Sun 07:06:20 PM 38.9723 -84.2592 North 444 511 36,100 -984 Descending FlightAware ADS-B (KCVG)
Sun 07:06:51 PM 39.0292 -84.2501 North 441 507 35,600 -871 Descending FlightAware ADS-B
Sun 07:07:22 PM 39.0925 -84.2398 North 445 512 35,200 -896 Descending FlightAware ADS-B
Sun 07:07:58 PM 39.1758 -84.2265 North 447 514 34,600 -985 Descending FlightAware ADS-B
Sun 07:08:29 PM 39.2429 -84.2156 North 450 518 34,100 -1,043 Descending FlightAware ADS-B
Sun 07:09:07 PM 39.3233 -84.2026 North 453 521 33,400 -1,014 Descending FlightAware ADS-B
Sun 07:09:40 PM 39.3899 -84.1917 North 453 521 32,900 -1,000 Descending FlightAware ADS-B
Sun 07:10:19 PM 39.4719 -84.1784 North 451 519 32,200 -886 Descending FlightAware ADS-B
Sun 07:11:08 PM 39.5572 -84.1653 North 451 519 31,600 -873 Descending Indianapolis Center
Sun 07:12:09 PM 39.6797 -84.1444 North 449 517 30,600 -992 Descending Indianapolis Center
Sun 07:13:09 PM 39.7989 -84.1247 North 436 502 29,600 -1,210 Descending Indianapolis Center
Sun 07:14:13 PM 39.9164 -84.1058 North 429 494 28,100 -1,776 Descending Indianapolis Center
Sun 07:15:14 PM 40.0297 -84.0872 North 417 480 25,900 -1,967 Descending Indianapolis Center
Sun 07:16:15 PM 40.1406 -84.0692 North 405 466 24,100 -919 Descending Indianapolis Center
Sun 07:17:18 PM 40.2489 -84.0508 North 397 457 24,000 -1,200 Descending Indianapolis Center
Sun 07:18:20 PM 40.3803 -84.0142 12° North 399 459 21,600 -2,293 Descending Indianapolis Center
Sun 07:19:21 PM 40.4900 -83.9744 15° North 406 467 19,300 -2,182 Descending Indianapolis Center
Sun 07:20:21 PM 40.5961 -83.9383 14° North 400 460 17,200 -2,032 Descending Indianapolis Center
Sun 07:21:25 PM 40.6964 -83.9033 15° North 381 438 15,100 -1,056 Descending Indianapolis Center
Sun 07:22:26 PM 40.7925 -83.8700 15° North 365 420 15,000 -246 Descending Indianapolis Center
Sun 07:23:27 PM 40.8853 -83.8372 15° North 350 403 14,600 -976 Descending Indianapolis Center
Sun 07:24:29 PM 40.9797 -83.8047 15° North 350 403 13,000 -1,512 Descending Indianapolis Center
Sun 07:25:30 PM 41.0872 -83.7664 15° North 340 391 11,500 -1,200 Descending Indianapolis Center
Sun 07:26:34 PM 41.1761 -83.7361 14° North 332 382 10,500 -726 Descending Indianapolis Center
Sun 07:27:34 PM 41.2539 -83.7075 15° North 299 344 10,000 -893 Descending Indianapolis Center
Sun 07:28:35 PM 41.3267 -83.6900 10° North 271 312 8,700 -1,171 Descending Indianapolis Center
Sun 07:29:37 PM 41.3981 -83.6850 North 258 297 7,600 -976 Descending Indianapolis Center
Sun 07:30:38 PM 41.4594 -83.6717 North 230 265 6,700 -1,200 Descending Indianapolis Center
Sun 07:31:42 PM 41.5172 -83.6667 North 214 246 5,100 -1,403 Descending Indianapolis Center
Sun 07:32:42 PM 41.5694 -83.6656 North 203 234 3,800 -1,338 Descending Indianapolis Center
Sun 07:34:01 PM 41.6075 -83.7122 317° Northwest 163 188 2,000 -851 Descending Cleveland Center
Sun 07:35:03 PM 41.6125 -83.7722 276° West 157 181 1,800 -194 Descending Cleveland Center

Login

Don't have an account? Register now (free) for customized features, flight alerts, and more!